Time;durP1;ratioP1;P1;durP2;ratioP2;P2;SDS_P1;SDS_P2;PMS_P1;PMS_P2;Temp;Humidity;BMP_temperature;BMP_pressure;BME280_temperature;BME280_humidity;BME280_pressure;Samples;Min_cycle;Max_cycle;Signal;HPM_P1;HPM_P2
2021/10/14 00:00:31;;;;;;;2.55;0.85;;;;;;;9.54;72.54;100384.97;5084719;28;20027;-69
2021/10/14 00:02:58;;;;;;;3.17;1.08;;;;;;;9.53;73.15;100389.31;5103094;28;20028;-70
2021/10/14 00:05:23;;;;;;;3.58;1.05;;;;;;;9.52;73.65;100377.22;5102751;28;20162;-70
2021/10/14 00:07:49;;;;;;;1.55;1.20;;;;;;;9.56;73.79;100380.66;5102924;28;20024;-69
2021/10/14 00:10:14;;;;;;;1.95;1.10;;;;;;;9.57;73.81;100379.78;5103166;28;20020;-71
2021/10/14 00:12:39;;;;;;;4.90;1.27;;;;;;;9.60;73.94;100376.31;5103251;28;20047;-71
2021/10/14 00:15:06;;;;;;;5.13;1.85;;;;;;;9.57;74.76;100364.22;5103128;28;20047;-70
2021/10/14 00:17:31;;;;;;;6.80;1.52;;;;;;;9.56;75.21;100359.91;5103259;28;20041;-69
2021/10/14 00:19:56;;;;;;;2.40;1.02;;;;;;;9.58;75.44;100368.56;5106039;28;20023;-70
2021/10/14 00:22:22;;;;;;;4.97;1.58;;;;;;;9.56;75.51;100362.50;5106743;28;20047;-70
2021/10/14 00:24:47;;;;;;;4.15;1.20;;;;;;;9.57;76.07;100360.78;5106871;28;20387;-71
2021/10/14 00:27:12;;;;;;;5.03;1.27;;;;;;;9.54;76.31;100348.69;5106663;28;20024;-71
2021/10/14 00:29:37;;;;;;;5.40;1.50;;;;;;;9.57;77.38;100353.00;5106566;28;20082;-70
2021/10/14 00:32:03;;;;;;;5.57;1.15;;;;;;;9.55;77.89;100345.25;5106744;28;20020;-70
2021/10/14 00:34:28;;;;;;;7.13;1.65;;;;;;;9.55;78.07;100346.09;5106297;28;20024;-70
2021/10/14 00:36:54;;;;;;;5.68;1.30;;;;;;;9.51;78.39;100328.84;5106314;28;20152;-70
2021/10/14 00:39:19;;;;;;;3.92;1.25;;;;;;;9.54;78.63;100328.81;5106103;28;20020;-71
2021/10/14 00:41:44;;;;;;;4.43;1.90;;;;;;;9.56;78.73;100323.63;5106441;28;20034;-70
2021/10/14 00:44:10;;;;;;;5.43;1.65;;;;;;;9.60;78.91;100320.16;5106518;28;20031;-70
2021/10/14 00:46:35;;;;;;;9.25;1.45;;;;;;;9.61;78.90;100313.25;5106326;28;20390;-70
2021/10/14 00:49:00;;;;;;;5.35;1.23;;;;;;;9.65;79.15;100315.81;5106173;28;20032;-70
2021/10/14 00:51:27;;;;;;;3.55;1.10;;;;;;;9.66;79.66;100314.91;5087797;28;20088;-70
2021/10/14 00:53:52;;;;;;;6.70;1.13;;;;;;;9.72;79.22;100305.38;5088208;28;20028;-70
2021/10/14 00:56:18;;;;;;;5.88;1.45;;;;;;;9.74;79.45;100301.94;5105770;28;20028;-70
2021/10/14 00:58:44;;;;;;;5.82;1.27;;;;;;;9.73;80.34;100299.34;5087755;28;20071;-71
2021/10/14 01:01:10;;;;;;;3.72;1.30;;;;;;;9.72;80.64;100290.72;5106100;28;20028;-70
2021/10/14 01:03:35;;;;;;;3.92;1.90;;;;;;;9.69;81.30;100295.03;5105839;28;20028;-70
2021/10/14 01:06:01;;;;;;;7.03;1.10;;;;;;;9.69;81.62;100293.31;5105519;28;20024;-70
2021/10/14 01:08:26;;;;;;;5.97;1.92;;;;;;;9.67;81.74;100285.56;5105800;28;20042;-70
2021/10/14 01:10:52;;;;;;;6.25;1.30;;;;;;;9.70;81.93;100287.25;5105615;28;20472;-70
2021/10/14 01:13:18;;;;;;;7.85;1.50;;;;;;;9.64;82.57;100276.94;5105823;28;20020;-70
2021/10/14 01:15:44;;;;;;;4.57;1.48;;;;;;;9.69;82.59;100275.19;5121623;28;20156;-71
2021/10/14 01:18:11;;;;;;;6.53;1.63;;;;;;;9.66;82.74;100281.22;5105664;28;20024;-71
2021/10/14 01:20:36;;;;;;;5.57;1.48;;;;;;;9.76;82.61;100279.44;5105342;28;20048;-70
2021/10/14 01:23:02;;;;;;;3.15;2.00;;;;;;;9.79;82.34;100265.59;5105296;28;20063;-71
2021/10/14 01:25:27;;;;;;;5.20;1.77;;;;;;;9.85;82.57;100273.34;5105688;28;20031;-69
2021/10/14 01:27:52;;;;;;;6.10;2.15;;;;;;;9.84;82.94;100268.16;5105464;28;20107;-70
2021/10/14 01:30:18;;;;;;;5.28;1.60;;;;;;;9.84;83.07;100263.81;5104386;28;20020;-71
2021/10/14 01:32:46;;;;;;;6.03;2.08;;;;;;;9.87;83.13;100256.00;5105202;28;20084;-70
2021/10/14 01:35:12;;;;;;;4.90;1.88;;;;;;;9.90;83.11;100262.94;5105022;28;20027;-70
2021/10/14 01:37:37;;;;;;;4.90;2.25;;;;;;;9.93;82.80;100257.72;5105273;28;20441;-70
2021/10/14 01:40:04;;;;;;;4.03;2.15;;;;;;;9.93;83.29;100255.13;5120641;28;20023;-70
2021/10/14 01:42:29;;;;;;;5.78;2.42;;;;;;;9.96;83.17;100256.81;5104939;28;20020;-70
2021/10/14 01:44:57;;;;;;;8.85;2.97;;;;;;;9.94;83.28;100253.38;5104725;28;20020;-70
2021/10/14 01:47:22;;;;;;;8.23;3.08;;;;;;;9.94;83.27;100249.06;5105077;28;20027;-70
2021/10/14 01:49:48;;;;;;;7.43;3.80;;;;;;;10.00;83.54;100245.56;5104598;28;20032;-69
2021/10/14 01:52:13;;;;;;;6.22;3.25;;;;;;;9.98;83.49;100235.19;5104891;28;20121;-71
2021/10/14 01:54:38;;;;;;;6.93;3.53;;;;;;;9.96;83.59;100228.28;5104743;28;20023;-70
2021/10/14 01:57:04;;;;;;;5.97;3.65;;;;;;;10.04;83.26;100245.53;5105042;28;20083;-70
2021/10/14 01:59:29;;;;;;;10.30;3.58;;;;;;;10.06;83.48;100242.03;5104590;28;20048;-70
2021/10/14 02:01:54;;;;;;;6.60;3.25;;;;;;;10.10;83.59;100246.31;5104718;28;20023;-72
2021/10/14 02:04:20;;;;;;;7.95;3.45;;;;;;;10.11;83.46;100243.72;5104753;28;20019;-70
2021/10/14 02:06:45;;;;;;;9.55;4.03;;;;;;;10.02;83.71;100223.03;5104432;28;20574;-70
2021/10/14 02:09:10;;;;;;;7.15;3.75;;;;;;;10.19;83.11;100224.63;5104416;28;20020;-70
2021/10/14 02:11:36;;;;;;;8.20;3.80;;;;;;;10.20;83.37;100231.53;5104271;28;20024;-69
2021/10/14 02:14:01;;;;;;;9.20;4.00;;;;;;;10.22;83.44;100224.59;5104311;28;20092;-70
2021/10/14 02:16:26;;;;;;;7.13;3.50;;;;;;;10.23;83.14;100213.34;5104457;28;20020;-70
2021/10/14 02:18:55;;;;;;;14.75;4.10;;;;;;;10.26;83.24;100210.72;5085927;28;20054;-70
2021/10/14 02:21:20;;;;;;;13.55;4.00;;;;;;;10.27;83.16;100210.69;5103969;28;20020;-71
2021/10/14 02:23:45;;;;;;;11.85;3.78;;;;;;;10.25;83.25;100202.09;5104118;28;20047;-71
2021/10/14 02:26:11;;;;;;;12.32;4.20;;;;;;;10.26;83.41;100202.94;5104144;28;20379;-71
2021/10/14 02:28:36;;;;;;;10.05;3.75;;;;;;;10.26;83.63;100208.13;5104299;28;20091;-70
2021/10/14 02:31:01;;;;;;;10.25;4.72;;;;;;;10.25;83.94;100206.41;5104077;28;20112;-70
2021/10/14 02:33:27;;;;;;;8.13;3.60;;;;;;;10.22;84.01;100196.94;5104483;28;20050;-70
2021/10/14 02:35:52;;;;;;;11.02;3.80;;;;;;;10.26;84.25;100200.34;5104008;28;20417;-70
2021/10/14 02:38:17;;;;;;;9.02;3.47;;;;;;;10.27;84.36;100205.50;5086339;28;20020;-71
2021/10/14 02:40:43;;;;;;;16.05;4.07;;;;;;;10.32;84.52;100210.66;5104258;28;20016;-70
2021/10/14 02:43:08;;;;;;;12.18;4.57;;;;;;;10.31;84.49;100205.47;5103987;28;20024;-70
2021/10/14 02:45:33;;;;;;;14.85;4.60;;;;;;;10.36;84.51;100209.75;5104031;28;20024;-70
2021/10/14 02:47:59;;;;;;;17.35;4.90;;;;;;;10.43;84.32;100209.69;5104219;28;20028;-70
2021/10/14 02:50:24;;;;;;;16.75;5.68;;;;;;;10.46;84.37;100207.97;5103835;28;20055;-70
2021/10/14 02:52:50;;;;;;;16.17;5.40;;;;;;;10.49;84.49;100207.06;5103902;28;20516;-70
2021/10/14 02:55:15;;;;;;;21.92;6.28;;;;;;;10.43;84.43;100194.97;5103745;28;20023;-70
2021/10/14 02:57:40;;;;;;;21.65;6.22;;;;;;;10.56;84.39;100211.28;5103758;28;20279;-71
2021/10/14 03:00:07;;;;;;;20.33;6.57;;;;;;;10.54;84.67;100207.88;5103570;28;20073;-70
2021/10/14 03:02:32;;;;;;;16.45;5.57;;;;;;;10.51;84.94;100200.13;5103759;28;20028;-70
2021/10/14 03:04:58;;;;;;;11.63;5.55;;;;;;;10.54;85.00;100197.47;5103553;28;20491;-70
2021/10/14 03:07:23;;;;;;;10.95;5.00;;;;;;;10.60;84.61;100191.34;5103948;28;20020;-70
2021/10/14 03:09:48;;;;;;;19.05;5.50;;;;;;;10.60;84.53;100187.03;5103604;28;20031;-70
2021/10/14 03:12:14;;;;;;;14.30;5.65;;;;;;;10.63;84.71;100201.69;5085083;28;20031;-70
2021/10/14 03:14:39;;;;;;;17.40;5.97;;;;;;;10.64;84.53;100183.50;5103617;28;20083;-69
2021/10/14 03:17:04;;;;;;;14.57;6.00;;;;;;;10.64;84.40;100173.13;5103599;28;20048;-70
2021/10/14 03:19:29;;;;;;;14.80;4.32;;;;;;;10.68;84.74;100179.13;5103431;28;20028;-70
2021/10/14 03:21:55;;;;;;;13.18;4.72;;;;;;;10.72;84.58;100179.97;5103120;28;20052;-69
2021/10/14 03:24:20;;;;;;;16.75;4.68;;;;;;;10.77;84.54;100176.41;5103257;28;20512;-70
2021/10/14 03:26:45;;;;;;;12.10;4.55;;;;;;;10.78;84.52;100170.34;5085240;28;20036;-71
2021/10/14 03:29:11;;;;;;;13.02;4.13;;;;;;;10.76;84.40;100166.06;5103437;28;20024;-70
2021/10/14 03:31:36;;;;;;;16.85;5.07;;;;;;;10.85;84.19;100171.13;5103397;28;20043;-70
2021/10/14 03:34:01;;;;;;;12.25;3.97;;;;;;;10.87;84.23;100174.56;5103501;28;20063;-71
2021/10/14 03:36:27;;;;;;;15.27;4.22;;;;;;;10.86;84.22;100165.03;5103319;28;20027;-70
2021/10/14 03:38:52;;;;;;;18.70;4.70;;;;;;;10.90;84.12;100163.28;5103357;28;20026;-70
2021/10/14 03:41:18;;;;;;;9.68;3.95;;;;;;;10.80;84.39;100152.13;5103404;28;20031;-70
2021/10/14 03:43:43;;;;;;;11.43;3.13;;;;;;;10.90;84.35;100168.47;5103213;28;20480;-69
2021/10/14 03:46:09;;;;;;;11.30;4.30;;;;;;;10.95;84.13;100169.28;5103384;28;20020;-69
2021/10/14 03:48:34;;;;;;;17.67;5.22;;;;;;;10.95;84.00;100156.28;5103088;28;20020;-70
2021/10/14 03:50:59;;;;;;;8.85;3.58;;;;;;;10.96;84.19;100159.75;5084596;28;20016;-69
2021/10/14 03:53:24;;;;;;;11.32;3.60;;;;;;;10.98;84.07;100155.38;5103853;28;20076;-70
2021/10/14 03:55:50;;;;;;;16.25;3.72;;;;;;;10.98;84.25;100157.97;5088896;28;20490;-71
2021/10/14 03:58:15;;;;;;;10.40;3.50;;;;;;;11.01;84.43;100158.78;5107277;28;20024;-70
2021/10/14 04:00:40;;;;;;;16.02;3.50;;;;;;;11.02;84.33;100155.31;5106942;28;20020;-70
2021/10/14 04:03:06;;;;;;;22.30;4.68;;;;;;;11.07;84.46;100159.59;5107145;28;20047;-71
2021/10/14 04:05:31;;;;;;;17.00;3.50;;;;;;;11.08;84.45;100148.31;5107006;28;20024;-69
2021/10/14 04:07:56;;;;;;;16.63;4.00;;;;;;;11.14;84.36;100156.88;5106785;28;20429;-70
2021/10/14 04:10:22;;;;;;;24.13;4.65;;;;;;;11.19;84.35;100149.00;5106579;28;20024;-71
2021/10/14 04:12:47;;;;;;;23.35;4.03;;;;;;;11.22;84.16;100148.09;5106851;28;20028;-70
2021/10/14 04:15:13;;;;;;;19.48;3.95;;;;;;;11.24;84.02;100141.13;5106793;28;20025;-70
2021/10/14 04:17:38;;;;;;;20.98;4.05;;;;;;;11.24;84.07;100130.75;5106537;28;20028;-69
2021/10/14 04:20:04;;;;;;;27.58;5.00;;;;;;;11.27;83.95;100136.75;5106431;28;20016;-69
2021/10/14 04:22:30;;;;;;;16.30;3.83;;;;;;;11.24;83.62;100118.63;5122165;28;20415;-69
2021/10/14 04:24:55;;;;;;;24.20;4.03;;;;;;;11.26;83.62;100126.41;5088282;28;20028;-74
2021/10/14 04:27:21;;;;;;;20.63;3.97;;;;;;;11.27;83.59;100128.09;5122051;28;20026;-68
2021/10/14 04:29:46;;;;;;;28.25;5.25;;;;;;;11.26;83.79;100135.03;5106293;28;20028;-69
2021/10/14 04:32:12;;;;;;;21.60;3.92;;;;;;;11.28;83.49;100130.66;5106434;28;20050;-66
2021/10/14 04:34:38;;;;;;;23.55;4.65;;;;;;;11.23;83.39;100118.66;5106376;28;20502;-68
2021/10/14 04:37:07;;;;;;;12.65;3.50;;;;;;;11.23;83.21;100119.47;5105726;28;20031;-68
2021/10/14 04:39:34;;;;;;;20.80;3.72;;;;;;;11.28;83.08;100125.47;5106235;28;20055;-69
2021/10/14 04:41:59;;;;;;;16.02;3.72;;;;;;;11.25;82.92;100114.25;5106105;28;20054;-71
2021/10/14 04:44:25;;;;;;;17.33;3.92;;;;;;;11.20;82.74;100098.75;5106224;28;20162;-69
2021/10/14 04:46:50;;;;;;;19.88;3.78;;;;;;;11.26;82.60;100113.41;5106050;28;20088;-69
2021/10/14 04:49:16;;;;;;;19.27;3.85;;;;;;;11.27;82.64;100115.09;5105991;28;20055;-68
2021/10/14 04:51:42;;;;;;;15.35;3.47;;;;;;;11.25;82.54;100116.88;5105871;28;20252;-68
2021/10/14 04:54:07;;;;;;;31.33;4.40;;;;;;;11.25;82.16;100125.53;5106203;28;20024;-70
2021/10/14 04:56:32;;;;;;;15.23;5.15;;;;;;;11.24;82.24;100117.75;5106212;28;20028;-70
2021/10/14 04:58:58;;;;;;;22.77;4.28;;;;;;;11.28;81.86;100117.69;5106144;28;20024;-69
2021/10/14 05:01:23;;;;;;;18.95;3.67;;;;;;;11.30;82.02;100119.38;5105776;28;20011;-69
2021/10/14 05:03:49;;;;;;;17.13;3.72;;;;;;;11.32;81.66;100121.09;5105872;28;20072;-69
2021/10/14 05:06:14;;;;;;;17.35;3.63;;;;;;;11.30;81.64;100114.19;5105313;28;20035;-69
2021/10/14 05:08:39;;;;;;;16.17;2.95;;;;;;;11.21;81.50;100100.47;5105753;28;20020;-69
2021/10/14 05:11:12;;;;;;;23.33;3.72;;;;;;;11.30;81.51;100109.00;5105452;28;20028;-69
2021/10/14 05:13:38;;;;;;;20.05;3.30;;;;;;;11.28;81.37;100106.41;5105582;28;20044;-69
2021/10/14 05:16:04;;;;;;;26.42;4.82;;;;;;;11.27;81.05;100102.97;5105525;28;20024;-69
2021/10/14 05:18:30;;;;;;;18.08;4.22;;;;;;;11.27;81.25;100100.38;5105414;28;20020;-69
2021/10/14 05:20:55;;;;;;;17.00;3.78;;;;;;;11.27;80.83;100096.91;5105198;28;20094;-69
2021/10/14 05:23:21;;;;;;;15.27;3.35;;;;;;;11.28;80.76;100096.03;5105236;28;20055;-68
2021/10/14 05:25:46;;;;;;;23.13;3.97;;;;;;;11.25;80.90;100094.34;5105553;28;20039;-69
2021/10/14 05:28:11;;;;;;;17.80;3.45;;;;;;;11.26;81.02;100097.81;5105542;28;20091;-69
2021/10/14 05:30:37;;;;;;;20.33;3.28;;;;;;;11.24;80.94;100091.78;5105137;28;20378;-68
2021/10/14 05:33:02;;;;;;;16.80;3.97;;;;;;;11.28;80.62;100096.03;5105313;28;20043;-68
2021/10/14 05:35:27;;;;;;;22.27;3.63;;;;;;;11.32;80.67;100091.63;5105077;28;20031;-69
2021/10/14 05:37:53;;;;;;;17.77;3.10;;;;;;;11.29;80.80;100092.56;5105282;28;20031;-67
2021/10/14 05:40:18;;;;;;;21.52;4.53;;;;;;;11.31;80.55;100095.13;5105168;28;20028;-67
2021/10/14 05:42:43;;;;;;;18.48;4.10;;;;;;;11.29;80.61;100082.16;5105037;28;20383;-68
2021/10/14 05:45:10;;;;;;;18.30;3.78;;;;;;;11.27;80.34;100083.91;5105242;28;20016;-69
2021/10/14 05:47:36;;;;;;;18.02;3.13;;;;;;;11.26;80.53;100085.66;5104940;28;20020;-68
2021/10/14 05:50:01;;;;;;;19.40;3.53;;;;;;;11.26;80.67;100085.66;5104559;28;20020;-69
2021/10/14 05:52:27;;;;;;;18.50;2.88;;;;;;;11.25;80.41;100080.47;5104927;28;20076;-68
2021/10/14 05:54:52;;;;;;;20.80;3.70;;;;;;;11.26;80.59;100067.47;5104993;28;20111;-68
2021/10/14 05:57:19;;;;;;;19.52;3.75;;;;;;;11.31;80.36;100066.53;5105139;28;20122;-69
2021/10/14 05:59:44;;;;;;;13.77;3.17;;;;;;;11.28;80.49;100060.50;5104666;28;20048;-67
2021/10/14 06:02:09;;;;;;;18.92;3.35;;;;;;;11.35;80.50;100070.78;5104823;28;20028;-68
2021/10/14 06:04:35;;;;;;;23.40;4.40;;;;;;;11.30;80.30;100063.06;5104763;28;20024;-68
2021/10/14 06:07:00;;;;;;;17.48;3.97;;;;;;;11.38;80.33;100071.59;5104643;28;20388;-69
2021/10/14 06:09:25;;;;;;;20.77;3.40;;;;;;;11.37;80.46;100062.06;5086445;28;20439;-69
2021/10/14 06:11:51;;;;;;;22.23;3.75;;;;;;;11.36;80.35;100060.38;5086316;28;20024;-70
2021/10/14 06:14:16;;;;;;;17.30;3.65;;;;;;;11.39;80.13;100064.66;5104681;28;20032;-68
2021/10/14 06:16:45;;;;;;;17.63;4.20;;;;;;;11.39;80.63;100068.13;5104208;28;20020;-69
2021/10/14 06:19:10;;;;;;;18.83;4.78;;;;;;;11.33;80.67;100057.81;5104576;28;20020;-70
2021/10/14 06:21:36;;;;;;;21.85;4.00;;;;;;;11.40;80.59;100056.84;5104108;28;20031;-70
2021/10/14 06:24:01;;;;;;;19.17;4.07;;;;;;;11.47;80.56;100059.34;5104570;28;20056;-69
2021/10/14 06:26:26;;;;;;;18.88;4.45;;;;;;;11.39;80.27;100044.72;5104457;28;20034;-70
2021/10/14 06:28:52;;;;;;;21.65;4.07;;;;;;;11.42;80.54;100046.44;5104434;28;20031;-70
2021/10/14 06:31:17;;;;;;;18.38;4.32;;;;;;;11.46;80.62;100055.00;5086052;28;20028;-69
2021/10/14 06:33:43;;;;;;;33.00;4.22;;;;;;;11.48;80.46;100046.31;5104545;28;20095;-70
2021/10/14 06:36:08;;;;;;;32.28;6.00;;;;;;;11.45;80.78;100045.50;5103733;28;20047;-68
2021/10/14 06:38:34;;;;;;;19.02;4.25;;;;;;;11.45;80.80;100043.78;5104049;28;20024;-69
2021/10/14 06:40:59;;;;;;;20.17;4.05;;;;;;;11.46;80.89;100047.22;5103913;28;20024;-69
2021/10/14 06:43:24;;;;;;;23.83;5.03;;;;;;;11.46;81.04;100042.00;5103814;28;20028;-69
2021/10/14 06:45:50;;;;;;;23.10;3.83;;;;;;;11.44;81.15;100043.81;5104055;28;20019;-69
2021/10/14 06:48:15;;;;;;;25.88;5.13;;;;;;;11.48;81.23;100037.66;5104021;28;20134;-69
2021/10/14 06:50:41;;;;;;;28.05;4.80;;;;;;;11.48;81.50;100028.13;5085532;28;20033;-69
2021/10/14 06:53:10;;;;;;;19.30;4.30;;;;;;;11.56;81.56;100038.38;5103923;28;20027;-69
2021/10/14 06:55:36;;;;;;;25.00;5.40;;;;;;;11.59;81.49;100032.25;5085916;28;20557;-69
2021/10/14 06:58:01;;;;;;;16.23;5.45;;;;;;;11.62;81.63;100034.78;5104085;28;20028;-68
2021/10/14 07:00:26;;;;;;;29.92;5.10;;;;;;;11.64;81.69;100033.91;5104014;28;20173;-69
2021/10/14 07:02:52;;;;;;;21.95;5.20;;;;;;;11.67;81.77;100037.31;5103966;28;20048;-69
2021/10/14 07:05:29;;;;;;;20.50;4.57;;;;;;;11.70;81.56;100037.25;5103685;28;20470;-71
2021/10/14 07:07:55;;;;;;;20.35;4.60;;;;;;;11.69;81.69;100032.94;5103975;28;20099;-69
2021/10/14 07:10:22;;;;;;;22.27;4.50;;;;;;;11.79;81.55;100031.84;5103651;28;20518;-69
2021/10/14 07:12:47;;;;;;;32.85;5.18;;;;;;;11.82;81.50;100041.38;5085306;28;20388;-69
2021/10/14 07:15:13;;;;;;;21.58;4.88;;;;;;;11.84;81.35;100032.63;5103662;28;20525;-70
2021/10/14 07:17:38;;;;;;;26.65;4.80;;;;;;;11.84;81.19;100029.16;5103610;28;20020;-69
2021/10/14 07:20:05;;;;;;;40.97;6.43;;;;;;;11.87;81.13;100032.56;5103428;28;20024;-69
2021/10/14 07:22:31;;;;;;;25.23;4.45;;;;;;;11.89;81.13;100032.53;5103213;28;20044;-69
2021/10/14 07:24:59;;;;;;;23.00;4.47;;;;;;;11.88;80.82;100029.09;5103532;28;20097;-69
2021/10/14 07:27:25;;;;;;;31.17;6.80;;;;;;;11.86;80.64;100028.28;5103406;28;20076;-68
2021/10/14 07:29:50;;;;;;;17.23;4.88;;;;;;;11.97;80.64;100028.03;5106618;28;20051;-69
2021/10/14 07:32:15;;;;;;;17.80;4.03;;;;;;;11.95;80.71;100022.00;5107550;28;20034;-69
2021/10/14 07:34:41;;;;;;;25.88;5.15;;;;;;;12.02;80.49;100026.22;5107782;28;20019;-69
2021/10/14 07:37:06;;;;;;;23.95;4.88;;;;;;;12.13;79.89;100031.22;5107830;28;20102;-69
2021/10/14 07:39:33;;;;;;;24.33;5.53;;;;;;;12.13;79.82;100028.63;5123441;28;20019;-69
2021/10/14 07:41:59;;;;;;;28.88;5.05;;;;;;;12.14;79.94;100026.88;5107500;28;20035;-69
2021/10/14 07:44:24;;;;;;;37.03;6.35;;;;;;;12.13;80.06;100031.22;5107660;28;20023;-69
2021/10/14 07:46:50;;;;;;;24.10;6.32;;;;;;;12.11;79.89;100029.53;5107547;28;20023;-69
2021/10/14 07:49:17;;;;;;;25.48;5.32;;;;;;;12.09;80.00;100032.16;5107312;28;20127;-70
2021/10/14 07:51:42;;;;;;;33.30;6.18;;;;;;;12.08;79.69;100024.38;5107301;28;20027;-69
2021/10/14 07:54:08;;;;;;;37.58;5.43;;;;;;;12.06;80.03;100031.34;5089519;28;20417;-68
2021/10/14 07:56:34;;;;;;;28.70;5.38;;;;;;;12.01;79.94;100021.03;5107542;28;20049;-68
2021/10/14 07:59:00;;;;;;;40.95;6.75;;;;;;;11.97;80.06;100027.19;5107417;28;20035;-68
2021/10/14 08:01:25;;;;;;;34.38;5.88;;;;;;;11.98;79.77;100023.72;5107180;28;20020;-68
2021/10/14 08:03:51;;;;;;;22.52;5.25;;;;;;;11.97;79.98;100024.56;5107055;28;20035;-68
2021/10/14 08:06:17;;;;;;;28.35;5.43;;;;;;;11.98;80.05;100021.09;5106860;28;20031;-68
2021/10/14 08:08:43;;;;;;;35.78;6.07;;;;;;;11.92;79.98;100016.88;5106978;28;20028;-67
2021/10/14 08:11:09;;;;;;;23.17;6.75;;;;;;;11.96;80.18;100021.13;5106864;28;20051;-68
2021/10/14 08:13:35;;;;;;;31.60;5.75;;;;;;;11.97;80.29;100019.38;5107147;28;20058;-69
2021/10/14 08:16:01;;;;;;;30.38;6.93;;;;;;;11.99;80.00;100023.69;5106944;28;20081;-68
2021/10/14 08:18:27;;;;;;;26.60;5.97;;;;;;;11.97;80.23;100021.97;5106903;28;20034;-70
2021/10/14 08:20:53;;;;;;;36.55;5.93;;;;;;;12.06;79.81;100015.75;5107343;28;20024;-70
2021/10/14 08:23:20;;;;;;;23.27;6.50;;;;;;;12.03;80.23;100022.72;5106184;28;20074;-70
2021/10/14 08:25:46;;;;;;;32.10;6.05;;;;;;;12.11;80.30;100019.97;5106039;28;20103;-70
2021/10/14 08:28:12;;;;;;;27.92;6.05;;;;;;;12.17;80.38;100013.81;5105881;28;20420;-69
2021/10/14 08:30:38;;;;;;;40.35;7.55;;;;;;;12.38;80.33;100022.03;5105583;28;20080;-71
2021/10/14 08:33:03;;;;;;;22.77;5.22;;;;;;;12.48;80.06;100023.53;5105598;28;20016;-68
2021/10/14 08:35:35;;;;;;;31.02;4.88;;;;;;;12.50;79.81;100007.88;5105375;28;20059;-68
2021/10/14 08:38:01;;;;;;;32.15;6.22;;;;;;;12.51;79.79;100004.38;5105389;28;20023;-68
2021/10/14 08:40:27;;;;;;;28.67;6.18;;;;;;;12.59;79.18;100004.19;5104820;28;20049;-68
2021/10/14 08:42:53;;;;;;;31.02;5.82;;;;;;;12.57;79.24;100014.63;5105164;28;20111;-68
2021/10/14 08:45:19;;;;;;;25.10;5.20;;;;;;;12.56;79.25;100017.28;5105283;28;20483;-68
2021/10/14 08:47:44;;;;;;;29.88;5.50;;;;;;;12.55;79.23;100021.66;5105378;28;20028;-69
2021/10/14 08:50:10;;;;;;;32.35;5.03;;;;;;;12.61;79.08;100023.25;5104842;28;20059;-68
2021/10/14 08:52:36;;;;;;;30.52;5.57;;;;;;;12.60;78.89;100027.59;5104978;28;20054;-70
2021/10/14 08:55:02;;;;;;;35.20;6.15;;;;;;;12.54;79.12;100019.91;5104877;28;20020;-69
2021/10/14 08:57:28;;;;;;;34.22;7.00;;;;;;;12.58;78.95;100010.31;5105126;28;20027;-68
2021/10/14 08:59:53;;;;;;;28.30;5.45;;;;;;;12.58;78.34;100020.72;5104913;28;20019;-69
2021/10/14 09:02:20;;;;;;;28.33;7.15;;;;;;;12.59;78.71;100019.81;5104902;28;20020;-68
2021/10/14 09:04:48;;;;;;;18.67;4.47;;;;;;;12.61;78.21;100029.31;5104693;28;20035;-69
2021/10/14 09:07:15;;;;;;;30.80;6.55;;;;;;;12.72;78.25;100025.59;5104485;28;20020;-68
2021/10/14 09:09:42;;;;;;;21.55;4.18;;;;;;;12.76;77.92;100027.25;5104509;28;20032;-69
2021/10/14 09:12:10;;;;;;;41.90;6.70;;;;;;;12.75;77.55;100023.78;5104699;28;20016;-70
2021/10/14 09:14:56;;;;;;;28.75;6.28;;;;;;;12.86;77.13;100025.28;5104667;28;20020;-70
2021/10/14 09:17:54;;;;;;;23.92;5.32;;;;;;;12.94;76.56;100019.91;5104604;28;20027;-68
2021/10/14 09:20:32;;;;;;;32.13;5.65;;;;;;;13.06;76.15;100022.19;5100416;28;20024;-70
2021/10/14 09:23:10;;;;;;;14.50;3.55;;;;;;;13.17;75.22;100000.19;5078699;28;1095608;-68
2021/10/14 09:25:38;;;;;;;17.40;4.55;;;;;;;13.13;74.60;100020.28;5085408;28;20037;-69
2021/10/14 09:28:21;;;;;;;18.85;5.45;;;;;;;13.15;74.40;100010.66;5085266;28;20085;-69
2021/10/14 09:30:51;;;;;;;27.42;3.67;;;;;;;13.16;74.20;100016.75;5085441;28;20032;-70
2021/10/14 09:33:31;;;;;;;19.83;4.78;;;;;;;13.20;74.05;100007.94;5085296;28;20032;-69
2021/10/14 09:36:10;;;;;;;20.48;4.25;;;;;;;13.30;73.41;100017.25;5084982;28;20025;-69
2021/10/14 09:38:36;;;;;;;22.85;5.85;;;;;;;13.31;72.88;100005.91;5085140;28;20020;-69
2021/10/14 09:41:03;;;;;;;18.65;4.55;;;;;;;13.39;72.56;100010.91;5084677;28;20074;-69
2021/10/14 09:43:29;;;;;;;29.50;4.65;;;;;;;13.54;72.90;100022.75;5084802;28;20032;-69
2021/10/14 09:45:54;;;;;;;25.05;4.43;;;;;;;13.67;72.27;100027.63;5085041;28;20020;-70
2021/10/14 09:48:19;;;;;;;27.27;4.90;;;;;;;13.84;71.75;100028.00;5084763;28;20028;-70
2021/10/14 09:50:46;;;;;;;26.35;6.13;;;;;;;13.92;71.09;100011.25;5082628;28;20084;-67
2021/10/14 09:53:13;;;;;;;19.27;3.90;;;;;;;13.94;70.47;100014.69;5084551;28;20028;-68
2021/10/14 09:55:39;;;;;;;16.95;5.32;;;;;;;13.91;69.92;100006.94;5084507;28;20436;-69
2021/10/14 09:58:05;;;;;;;13.93;4.55;;;;;;;13.91;69.53;100015.63;5084804;28;20029;-68
2021/10/14 10:00:31;;;;;;;16.60;3.42;;;;;;;13.89;69.78;100012.22;5084117;28;20488;-69
2021/10/14 10:02:58;;;;;;;22.58;4.22;;;;;;;13.94;69.32;100012.06;5083156;28;20033;-69
2021/10/14 10:05:24;;;;;;;26.02;4.80;;;;;;;13.91;69.34;100014.78;5084069;28;20029;-69
2021/10/14 10:07:51;;;;;;;27.45;4.85;;;;;;;13.98;69.17;100018.91;5084473;28;20027;-68
2021/10/14 10:10:21;;;;;;;22.92;4.57;;;;;;;14.05;69.12;100011.75;5084201;28;20098;-70
2021/10/14 10:12:48;;;;;;;31.33;4.47;;;;;;;14.17;69.12;100006.16;5084406;28;20472;-69
2021/10/14 10:15:14;;;;;;;19.63;4.15;;;;;;;14.31;68.40;100005.78;5084292;28;20456;-69
2021/10/14 10:17:42;;;;;;;27.52;4.55;;;;;;;14.44;67.92;100003.63;5084120;28;20101;-68
2021/10/14 10:20:10;;;;;;;21.05;4.25;;;;;;;14.46;67.62;100006.19;5084189;28;20039;-69
2021/10/14 10:22:35;;;;;;;20.42;4.22;;;;;;;14.46;67.77;100001.81;5074105;28;20045;-69
2021/10/14 10:25:25;;;;;;;23.35;3.97;;;;;;;14.48;68.13;99999.16;5064067;28;20029;-68
2021/10/14 10:27:51;;;;;;;18.33;4.40;;;;;;;14.50;68.00;99999.97;5064021;28;20031;-69
2021/10/14 10:30:39;;;;;;;20.45;3.88;;;;;;;14.61;67.66;99991.81;5063729;28;20028;-69
2021/10/14 10:33:07;;;;;;;23.77;5.60;;;;;;;14.77;67.04;99989.53;5063823;28;20049;-69
2021/10/14 10:35:49;;;;;;;18.70;3.30;;;;;;;15.04;66.42;99973.88;5063542;28;20116;-69
2021/10/14 10:38:23;;;;;;;17.85;3.38;;;;;;;15.31;65.17;99984.28;5063939;28;20377;-68
2021/10/14 10:40:51;;;;;;;16.25;3.83;;;;;;;15.64;64.34;99977.88;5063580;28;20044;-69
2021/10/14 10:43:26;;;;;;;19.52;3.47;;;;;;;15.63;63.89;99977.94;5063680;28;20021;-68
2021/10/14 10:45:53;;;;;;;13.40;3.95;;;;;;;15.52;64.16;99987.06;5063561;28;20310;-68
2021/10/14 10:48:41;;;;;;;20.92;3.75;;;;;;;15.41;64.33;99978.72;5063634;28;20021;-69
2021/10/14 10:51:08;;;;;;;23.60;3.70;;;;;;;15.45;64.69;99972.47;5063184;28;20027;-69
2021/10/14 10:53:45;;;;;;;14.57;3.88;;;;;;;15.97;63.43;99974.94;5063619;28;20045;-69
2021/10/14 10:56:28;;;;;;;14.93;2.95;;;;;;;16.04;62.32;99972.97;5063517;28;20021;-68
2021/10/14 10:58:54;;;;;;;18.65;3.38;;;;;;;15.67;62.13;99971.72;5063748;28;20016;-68
2021/10/14 11:01:20;;;;;;;14.93;2.95;;;;;;;15.25;63.55;99966.19;5063284;28;20055;-69
2021/10/14 11:04:01;;;;;;;13.68;3.25;;;;;;;15.06;64.07;99955.53;5063295;28;20025;-68
2021/10/14 11:06:29;;;;;;;17.02;3.78;;;;;;;14.87;64.62;99959.59;5063224;28;20048;-68
2021/10/14 11:09:04;;;;;;;16.63;3.20;;;;;;;14.71;65.40;99961.00;5063469;28;20093;-68
2021/10/14 11:11:30;;;;;;;11.32;3.20;;;;;;;14.62;65.27;99947.34;5063173;28;20369;-69
2021/10/14 11:13:56;;;;;;;22.05;3.25;;;;;;;14.61;65.15;99950.88;5063355;28;20029;-69
2021/10/14 11:16:28;;;;;;;19.30;3.88;;;;;;;14.46;65.01;99951.34;5063161;28;20031;-69
2021/10/14 11:18:58;;;;;;;19.70;2.75;;;;;;;14.35;65.55;99955.16;5062000;28;20048;-68